sensor_id;sensor_type;location;lat;lon;timestamp;temperature;humidity
32534;DHT22;18973;48.580;8.912;2022-11-02T00:00:55;9.70;99.90
32534;DHT22;18973;48.580;8.912;2022-11-02T00:03:21;9.60;99.90
32534;DHT22;18973;48.580;8.912;2022-11-02T00:05:47;9.70;99.90
32534;DHT22;18973;48.580;8.912;2022-11-02T00:08:12;9.70;99.90
32534;DHT22;18973;48.580;8.912;2022-11-02T00:10:41;9.80;99.90
32534;DHT22;18973;48.580;8.912;2022-11-02T00:13:06;9.80;99.90
32534;DHT22;18973;48.580;8.912;2022-11-02T00:15:33;9.80;99.90
32534;DHT22;18973;48.580;8.912;2022-11-02T00:18:05;9.90;99.90
32534;DHT22;18973;48.580;8.912;2022-11-02T00:20:33;9.90;99.90
32534;DHT22;18973;48.580;8.912;2022-11-02T00:23:01;10.00;99.90
32534;DHT22;18973;48.580;8.912;2022-11-02T00:25:27;9.90;99.90
32534;DHT22;18973;48.580;8.912;2022-11-02T00:27:54;9.80;99.90
32534;DHT22;18973;48.580;8.912;2022-11-02T00:30:20;9.70;99.90
32534;DHT22;18973;48.580;8.912;2022-11-02T00:32:46;9.70;99.90
32534;DHT22;18973;48.580;8.912;2022-11-02T00:35:11;9.80;99.90
32534;DHT22;18973;48.580;8.912;2022-11-02T00:37:37;9.80;99.90
32534;DHT22;18973;48.580;8.912;2022-11-02T00:40:04;9.90;99.90
32534;DHT22;18973;48.580;8.912;2022-11-02T00:42:30;10.00;99.90
32534;DHT22;18973;48.580;8.912;2022-11-02T00:44:55;10.10;99.90
32534;DHT22;18973;48.580;8.912;2022-11-02T00:47:21;10.20;99.90
32534;DHT22;18973;48.580;8.912;2022-11-02T00:49:47;10.20;99.90
32534;DHT22;18973;48.580;8.912;2022-11-02T00:52:12;10.20;99.90
32534;DHT22;18973;48.580;8.912;2022-11-02T00:54:38;10.20;99.90
32534;DHT22;18973;48.580;8.912;2022-11-02T00:57:04;10.30;99.90
32534;DHT22;18973;48.580;8.912;2022-11-02T00:59:29;10.30;99.90
32534;DHT22;18973;48.580;8.912;2022-11-02T01:01:55;10.10;99.90
32534;DHT22;18973;48.580;8.912;2022-11-02T01:04:21;10.00;99.90
32534;DHT22;18973;48.580;8.912;2022-11-02T01:06:47;9.90;99.90
32534;DHT22;18973;48.580;8.912;2022-11-02T01:09:13;9.90;99.90
32534;DHT22;18973;48.580;8.912;2022-11-02T01:11:40;9.80;99.90
32534;DHT22;18973;48.580;8.912;2022-11-02T01:14:06;9.80;99.90
32534;DHT22;18973;48.580;8.912;2022-11-02T01:16:32;9.70;99.90
32534;DHT22;18973;48.580;8.912;2022-11-02T01:18:58;9.70;99.90
32534;DHT22;18973;48.580;8.912;2022-11-02T01:21:25;9.70;99.90
32534;DHT22;18973;48.580;8.912;2022-11-02T01:23:50;9.60;99.90
32534;DHT22;18973;48.580;8.912;2022-11-02T01:26:17;9.60;99.90
32534;DHT22;18973;48.580;8.912;2022-11-02T01:28:43;9.50;99.90
32534;DHT22;18973;48.580;8.912;2022-11-02T01:31:09;9.40;99.90
32534;DHT22;18973;48.580;8.912;2022-11-02T01:33:35;9.60;99.90
32534;DHT22;18973;48.580;8.912;2022-11-02T01:36:03;9.50;99.90
32534;DHT22;18973;48.580;8.912;2022-11-02T01:38:30;9.60;99.90
32534;DHT22;18973;48.580;8.912;2022-11-02T01:40:56;9.70;99.90
32534;DHT22;18973;48.580;8.912;2022-11-02T01:48:32;9.70;99.90
32534;DHT22;18973;48.580;8.912;2022-11-02T01:51:00;9.70;99.90
32534;DHT22;18973;48.580;8.912;2022-11-02T01:53:28;9.70;99.90
32534;DHT22;18973;48.580;8.912;2022-11-02T01:55:54;9.60;99.90
32534;DHT22;18973;48.580;8.912;2022-11-02T01:58:21;9.50;99.90
32534;DHT22;18973;48.580;8.912;2022-11-02T02:00:47;9.60;99.90
32534;DHT22;18973;48.580;8.912;2022-11-02T02:03:14;9.70;99.90
32534;DHT22;18973;48.580;8.912;2022-11-02T02:05:57;9.70;99.90
32534;DHT22;18973;48.580;8.912;2022-11-02T02:08:26;9.60;99.90
32534;DHT22;18973;48.580;8.912;2022-11-02T02:10:56;9.70;99.90
32534;DHT22;18973;48.580;8.912;2022-11-02T02:13:24;9.70;99.90
32534;DHT22;18973;48.580;8.912;2022-11-02T02:18:30;9.60;99.90
32534;DHT22;18973;48.580;8.912;2022-11-02T02:21:24;9.60;99.90
32534;DHT22;18973;48.580;8.912;2022-11-02T02:24:04;9.50;99.90
32534;DHT22;18973;48.580;8.912;2022-11-02T02:29:29;9.30;99.90
32534;DHT22;18973;48.580;8.912;2022-11-02T02:32:08;9.10;99.90
32534;DHT22;18973;48.580;8.912;2022-11-02T02:34:58;9.00;99.90
32534;DHT22;18973;48.580;8.912;2022-11-02T02:37:49;9.00;99.90
32534;DHT22;18973;48.580;8.912;2022-11-02T02:40:22;9.00;99.90
32534;DHT22;18973;48.580;8.912;2022-11-02T02:42:58;9.00;99.90
32534;DHT22;18973;48.580;8.912;2022-11-02T02:45:42;9.00;99.90
32534;DHT22;18973;48.580;8.912;2022-11-02T02:50:55;9.20;99.90
32534;DHT22;18973;48.580;8.912;2022-11-02T02:53:29;9.20;99.90
32534;DHT22;18973;48.580;8.912;2022-11-02T02:55:58;9.20;99.90
32534;DHT22;18973;48.580;8.912;2022-11-02T02:58:29;9.10;99.90
32534;DHT22;18973;48.580;8.912;2022-11-02T03:00:56;9.20;99.90
32534;DHT22;18973;48.580;8.912;2022-11-02T03:03:24;9.10;99.90
32534;DHT22;18973;48.580;8.912;2022-11-02T03:06:18;9.00;99.90
32534;DHT22;18973;48.580;8.912;2022-11-02T03:08:50;9.00;99.90
32534;DHT22;18973;48.580;8.912;2022-11-02T03:11:21;8.90;99.90
32534;DHT22;18973;48.580;8.912;2022-11-02T03:14:00;9.10;99.90
32534;DHT22;18973;48.580;8.912;2022-11-02T03:19:16;8.90;99.90
32534;DHT22;18973;48.580;8.912;2022-11-02T03:21:44;8.90;99.90
32534;DHT22;18973;48.580;8.912;2022-11-02T03:27:18;9.00;99.90
32534;DHT22;18973;48.580;8.912;2022-11-02T03:29:51;9.10;99.90
32534;DHT22;18973;48.580;8.912;2022-11-02T03:35:10;9.00;99.90
32534;DHT22;18973;48.580;8.912;2022-11-02T03:37:44;9.00;99.90
32534;DHT22;18973;48.580;8.912;2022-11-02T03:40:16;9.10;99.90
32534;DHT22;18973;48.580;8.912;2022-11-02T03:42:44;9.20;99.90
32534;DHT22;18973;48.580;8.912;2022-11-02T03:45:17;9.30;99.90
32534;DHT22;18973;48.580;8.912;2022-11-02T03:47:47;9.30;99.90
32534;DHT22;18973;48.580;8.912;2022-11-02T03:50:18;9.30;99.90
32534;DHT22;18973;48.580;8.912;2022-11-02T03:52:47;9.20;99.90
32534;DHT22;18973;48.580;8.912;2022-11-02T03:55:19;9.10;99.90
32534;DHT22;18973;48.580;8.912;2022-11-02T03:57:50;9.20;99.90
32534;DHT22;18973;48.580;8.912;2022-11-02T04:00:21;9.10;99.90
32534;DHT22;18973;48.580;8.912;2022-11-02T04:02:51;9.10;99.90
32534;DHT22;18973;48.580;8.912;2022-11-02T04:05:18;9.20;99.90
32534;DHT22;18973;48.580;8.912;2022-11-02T04:07:48;9.30;99.90
32534;DHT22;18973;48.580;8.912;2022-11-02T04:10:33;9.30;99.90
32534;DHT22;18973;48.580;8.912;2022-11-02T04:12:59;9.40;99.90
32534;DHT22;18973;48.580;8.912;2022-11-02T04:15:42;9.50;99.90
32534;DHT22;18973;48.580;8.912;2022-11-02T04:18:08;9.40;99.90
32534;DHT22;18973;48.580;8.912;2022-11-02T04:20:52;9.40;99.90
32534;DHT22;18973;48.580;8.912;2022-11-02T04:23:18;9.30;99.90
32534;DHT22;18973;48.580;8.912;2022-11-02T04:26:03;9.20;99.90
32534;DHT22;18973;48.580;8.912;2022-11-02T04:28:29;9.20;99.90
32534;DHT22;18973;48.580;8.912;2022-11-02T04:30:57;9.20;99.90
32534;DHT22;18973;48.580;8.912;2022-11-02T04:33:24;9.20;99.90
32534;DHT22;18973;48.580;8.912;2022-11-02T04:36:04;9.20;99.90
32534;DHT22;18973;48.580;8.912;2022-11-02T04:38:31;9.30;99.90
32534;DHT22;18973;48.580;8.912;2022-11-02T04:41:17;9.30;99.90
32534;DHT22;18973;48.580;8.912;2022-11-02T04:44:01;9.30;99.90
32534;DHT22;18973;48.580;8.912;2022-11-02T04:46:29;9.40;99.90
32534;DHT22;18973;48.580;8.912;2022-11-02T04:48:55;9.40;99.90
32534;DHT22;18973;48.580;8.912;2022-11-02T04:51:22;9.50;99.90
32534;DHT22;18973;48.580;8.912;2022-11-02T04:53:50;9.50;99.90
32534;DHT22;18973;48.580;8.912;2022-11-02T04:56:16;9.50;99.90
32534;DHT22;18973;48.580;8.912;2022-11-02T04:58:42;9.60;99.90
32534;DHT22;18973;48.580;8.912;2022-11-02T05:01:11;9.60;99.90
32534;DHT22;18973;48.580;8.912;2022-11-02T05:03:38;9.40;99.90
32534;DHT22;18973;48.580;8.912;2022-11-02T05:06:04;9.40;99.90
32534;DHT22;18973;48.580;8.912;2022-11-02T05:08:30;9.30;99.90
32534;DHT22;18973;48.580;8.912;2022-11-02T05:10:57;9.20;99.90
32534;DHT22;18973;48.580;8.912;2022-11-02T05:13:24;9.20;99.90
32534;DHT22;18973;48.580;8.912;2022-11-02T05:15:50;9.10;99.90
32534;DHT22;18973;48.580;8.912;2022-11-02T05:18:15;9.10;99.90
32534;DHT22;18973;48.580;8.912;2022-11-02T05:20:42;9.10;99.90
32534;DHT22;18973;48.580;8.912;2022-11-02T05:23:07;9.10;99.90
32534;DHT22;18973;48.580;8.912;2022-11-02T05:25:33;9.10;99.90
32534;DHT22;18973;48.580;8.912;2022-11-02T05:27:59;9.20;99.90
32534;DHT22;18973;48.580;8.912;2022-11-02T05:30:25;9.30;99.90
32534;DHT22;18973;48.580;8.912;2022-11-02T05:32:55;9.20;99.90
32534;DHT22;18973;48.580;8.912;2022-11-02T05:35:21;9.10;99.90
32534;DHT22;18973;48.580;8.912;2022-11-02T05:37:47;9.10;99.90
32534;DHT22;18973;48.580;8.912;2022-11-02T05:40:13;9.00;99.90
32534;DHT22;18973;48.580;8.912;2022-11-02T05:42:39;9.00;99.90
32534;DHT22;18973;48.580;8.912;2022-11-02T05:45:05;9.00;99.90
32534;DHT22;18973;48.580;8.912;2022-11-02T05:47:32;9.10;99.90
32534;DHT22;18973;48.580;8.912;2022-11-02T05:49:58;9.10;99.90
32534;DHT22;18973;48.580;8.912;2022-11-02T05:52:24;9.00;99.90
32534;DHT22;18973;48.580;8.912;2022-11-02T05:54:50;9.00;99.90
32534;DHT22;18973;48.580;8.912;2022-11-02T05:57:15;9.00;99.90
32534;DHT22;18973;48.580;8.912;2022-11-02T05:59:42;9.00;99.90
32534;DHT22;18973;48.580;8.912;2022-11-02T06:02:08;9.00;99.90
32534;DHT22;18973;48.580;8.912;2022-11-02T06:04:34;9.10;99.90
32534;DHT22;18973;48.580;8.912;2022-11-02T06:06:59;9.00;99.90
32534;DHT22;18973;48.580;8.912;2022-11-02T06:09:25;9.10;99.90
32534;DHT22;18973;48.580;8.912;2022-11-02T06:11:50;9.10;99.90
32534;DHT22;18973;48.580;8.912;2022-11-02T06:14:16;9.10;99.90
32534;DHT22;18973;48.580;8.912;2022-11-02T06:16:42;9.00;99.90
32534;DHT22;18973;48.580;8.912;2022-11-02T06:19:07;9.10;99.90
32534;DHT22;18973;48.580;8.912;2022-11-02T06:21:33;9.00;99.90
32534;DHT22;18973;48.580;8.912;2022-11-02T06:23:59;9.00;99.90
32534;DHT22;18973;48.580;8.912;2022-11-02T06:26:25;9.00;99.90
32534;DHT22;18973;48.580;8.912;2022-11-02T06:28:50;9.00;99.90
32534;DHT22;18973;48.580;8.912;2022-11-02T06:31:18;9.00;99.90
32534;DHT22;18973;48.580;8.912;2022-11-02T06:33:44;9.10;99.90
32534;DHT22;18973;48.580;8.912;2022-11-02T06:36:10;9.10;99.90
32534;DHT22;18973;48.580;8.912;2022-11-02T06:38:36;9.10;99.90
32534;DHT22;18973;48.580;8.912;2022-11-02T06:41:03;9.20;99.90
32534;DHT22;18973;48.580;8.912;2022-11-02T06:43:31;9.10;99.90
32534;DHT22;18973;48.580;8.912;2022-11-02T06:45:58;9.30;99.90
32534;DHT22;18973;48.580;8.912;2022-11-02T06:48:25;9.40;99.90
32534;DHT22;18973;48.580;8.912;2022-11-02T06:50:51;9.60;99.90
32534;DHT22;18973;48.580;8.912;2022-11-02T06:53:17;9.70;99.90
32534;DHT22;18973;48.580;8.912;2022-11-02T06:55:43;9.80;99.90
32534;DHT22;18973;48.580;8.912;2022-11-02T06:58:09;9.90;99.90
32534;DHT22;18973;48.580;8.912;2022-11-02T07:00:35;9.90;99.90
32534;DHT22;18973;48.580;8.912;2022-11-02T07:03:05;9.90;99.90
32534;DHT22;18973;48.580;8.912;2022-11-02T07:05:32;9.90;99.90
32534;DHT22;18973;48.580;8.912;2022-11-02T07:07:58;10.00;99.90
32534;DHT22;18973;48.580;8.912;2022-11-02T07:10:24;10.00;99.90
32534;DHT22;18973;48.580;8.912;2022-11-02T07:12:54;10.00;99.90
32534;DHT22;18973;48.580;8.912;2022-11-02T07:15:22;10.10;99.90
32534;DHT22;18973;48.580;8.912;2022-11-02T07:17:48;10.10;99.90
32534;DHT22;18973;48.580;8.912;2022-11-02T07:20:14;10.00;99.90
32534;DHT22;18973;48.580;8.912;2022-11-02T07:22:40;10.10;99.90
32534;DHT22;18973;48.580;8.912;2022-11-02T07:25:06;10.10;99.90
32534;DHT22;18973;48.580;8.912;2022-11-02T07:27:37;10.20;99.90
32534;DHT22;18973;48.580;8.912;2022-11-02T07:30:04;10.20;99.90
32534;DHT22;18973;48.580;8.912;2022-11-02T07:32:30;10.20;99.90
32534;DHT22;18973;48.580;8.912;2022-11-02T07:34:55;10.20;99.90
32534;DHT22;18973;48.580;8.912;2022-11-02T07:37:21;10.20;99.90
32534;DHT22;18973;48.580;8.912;2022-11-02T07:39:47;10.20;99.90
32534;DHT22;18973;48.580;8.912;2022-11-02T07:42:12;10.40;99.90
32534;DHT22;18973;48.580;8.912;2022-11-02T07:44:38;11.00;99.90
32534;DHT22;18973;48.580;8.912;2022-11-02T07:47:04;11.20;99.90
32534;DHT22;18973;48.580;8.912;2022-11-02T07:49:29;11.60;99.90
32534;DHT22;18973;48.580;8.912;2022-11-02T07:51:55;12.00;99.90
32534;DHT22;18973;48.580;8.912;2022-11-02T07:54:21;12.50;99.90
32534;DHT22;18973;48.580;8.912;2022-11-02T07:56:46;13.40;99.90
32534;DHT22;18973;48.580;8.912;2022-11-02T07:59:12;14.00;99.90
32534;DHT22;18973;48.580;8.912;2022-11-02T08:01:38;14.70;99.90
32534;DHT22;18973;48.580;8.912;2022-11-02T08:04:04;15.20;99.90
32534;DHT22;18973;48.580;8.912;2022-11-02T08:06:29;15.50;99.90
32534;DHT22;18973;48.580;8.912;2022-11-02T08:08:55;15.90;99.90
32534;DHT22;18973;48.580;8.912;2022-11-02T08:11:21;15.90;99.90
32534;DHT22;18973;48.580;8.912;2022-11-02T08:13:46;16.30;99.90
32534;DHT22;18973;48.580;8.912;2022-11-02T08:16:12;16.30;99.90
32534;DHT22;18973;48.580;8.912;2022-11-02T08:18:38;16.40;99.90
32534;DHT22;18973;48.580;8.912;2022-11-02T08:21:05;16.40;99.90
32534;DHT22;18973;48.580;8.912;2022-11-02T08:23:31;16.00;99.90
32534;DHT22;18973;48.580;8.912;2022-11-02T08:25:57;15.80;99.90
32534;DHT22;18973;48.580;8.912;2022-11-02T08:28:26;15.50;99.90
32534;DHT22;18973;48.580;8.912;2022-11-02T08:30:52;15.60;99.90
32534;DHT22;18973;48.580;8.912;2022-11-02T08:33:19;15.60;99.90
32534;DHT22;18973;48.580;8.912;2022-11-02T08:35:46;15.40;99.90
32534;DHT22;18973;48.580;8.912;2022-11-02T08:38:12;15.10;99.90
32534;DHT22;18973;48.580;8.912;2022-11-02T08:40:39;14.80;99.90
32534;DHT22;18973;48.580;8.912;2022-11-02T08:43:12;14.50;99.90
32534;DHT22;18973;48.580;8.912;2022-11-02T08:45:40;14.40;99.90
32534;DHT22;18973;48.580;8.912;2022-11-02T08:48:06;14.30;99.90
32534;DHT22;18973;48.580;8.912;2022-11-02T08:50:33;14.20;99.90
32534;DHT22;18973;48.580;8.912;2022-11-02T08:52:59;14.20;99.90
32534;DHT22;18973;48.580;8.912;2022-11-02T08:55:25;14.20;99.90
32534;DHT22;18973;48.580;8.912;2022-11-02T08:57:52;14.20;99.90
32534;DHT22;18973;48.580;8.912;2022-11-02T09:00:21;14.10;99.90
32534;DHT22;18973;48.580;8.912;2022-11-02T09:05:30;14.50;99.90
32534;DHT22;18973;48.580;8.912;2022-11-02T09:07:58;14.70;99.90
32534;DHT22;18973;48.580;8.912;2022-11-02T09:10:25;15.20;99.90
32534;DHT22;18973;48.580;8.912;2022-11-02T09:12:51;15.60;99.90
32534;DHT22;18973;48.580;8.912;2022-11-02T09:15:17;16.00;99.90
32534;DHT22;18973;48.580;8.912;2022-11-02T09:17:46;16.10;99.90
32534;DHT22;18973;48.580;8.912;2022-11-02T09:20:12;16.10;99.90
32534;DHT22;18973;48.580;8.912;2022-11-02T09:22:38;16.10;99.90
32534;DHT22;18973;48.580;8.912;2022-11-02T09:25:04;15.90;99.90
32534;DHT22;18973;48.580;8.912;2022-11-02T09:27:30;15.90;99.90
32534;DHT22;18973;48.580;8.912;2022-11-02T09:29:55;15.80;99.90
32534;DHT22;18973;48.580;8.912;2022-11-02T09:32:21;15.80;99.90
32534;DHT22;18973;48.580;8.912;2022-11-02T09:34:47;15.60;99.90
32534;DHT22;18973;48.580;8.912;2022-11-02T09:37:15;15.30;99.90
32534;DHT22;18973;48.580;8.912;2022-11-02T09:39:40;15.30;99.90
32534;DHT22;18973;48.580;8.912;2022-11-02T09:44:58;15.30;99.90
32534;DHT22;18973;48.580;8.912;2022-11-02T09:47:26;15.30;99.90
32534;DHT22;18973;48.580;8.912;2022-11-02T09:49:54;15.30;99.90
32534;DHT22;18973;48.580;8.912;2022-11-02T09:52:33;15.20;99.90
32534;DHT22;18973;48.580;8.912;2022-11-02T09:55:03;15.20;99.90
32534;DHT22;18973;48.580;8.912;2022-11-02T09:57:32;15.10;99.90
32534;DHT22;18973;48.580;8.912;2022-11-02T09:59:58;15.10;99.90
32534;DHT22;18973;48.580;8.912;2022-11-02T10:12:57;15.00;99.90
32534;DHT22;18973;48.580;8.912;2022-11-02T10:15:43;15.00;99.90
32534;DHT22;18973;48.580;8.912;2022-11-02T10:18:20;15.00;99.90
32534;DHT22;18973;48.580;8.912;2022-11-02T10:20:57;15.00;99.90
32534;DHT22;18973;48.580;8.912;2022-11-02T10:25:52;14.90;99.90
32534;DHT22;18973;48.580;8.912;2022-11-02T10:28:23;15.00;99.90
32534;DHT22;18973;48.580;8.912;2022-11-02T10:30:52;14.90;99.90
32534;DHT22;18973;48.580;8.912;2022-11-02T10:33:25;14.90;99.90
32534;DHT22;18973;48.580;8.912;2022-11-02T10:36:19;15.00;99.90
32534;DHT22;18973;48.580;8.912;2022-11-02T10:41:51;15.10;99.90
32534;DHT22;18973;48.580;8.912;2022-11-02T10:45:07;15.10;99.90
32534;DHT22;18973;48.580;8.912;2022-11-02T10:53:13;15.30;99.90
32534;DHT22;18973;48.580;8.912;2022-11-02T10:58:26;15.40;99.90
32534;DHT22;18973;48.580;8.912;2022-11-02T11:01:08;15.40;99.90
32534;DHT22;18973;48.580;8.912;2022-11-02T11:03:52;15.40;99.90
32534;DHT22;18973;48.580;8.912;2022-11-02T11:06:19;15.40;99.90
32534;DHT22;18973;48.580;8.912;2022-11-02T11:08:46;15.40;99.90
32534;DHT22;18973;48.580;8.912;2022-11-02T11:11:23;15.40;99.90
32534;DHT22;18973;48.580;8.912;2022-11-02T11:14:04;15.50;99.90
32534;DHT22;18973;48.580;8.912;2022-11-02T11:16:38;15.50;99.90
32534;DHT22;18973;48.580;8.912;2022-11-02T11:19:14;15.60;99.90
32534;DHT22;18973;48.580;8.912;2022-11-02T11:21:43;15.60;99.90
32534;DHT22;18973;48.580;8.912;2022-11-02T11:24:22;15.70;99.90
32534;DHT22;18973;48.580;8.912;2022-11-02T11:29:34;15.70;99.90
32534;DHT22;18973;48.580;8.912;2022-11-02T11:32:02;15.80;99.90
32534;DHT22;18973;48.580;8.912;2022-11-02T11:34:31;15.80;99.90
32534;DHT22;18973;48.580;8.912;2022-11-02T11:37:05;15.90;99.90
32534;DHT22;18973;48.580;8.912;2022-11-02T11:39:32;16.00;99.90
32534;DHT22;18973;48.580;8.912;2022-11-02T11:41:59;16.30;99.90
32534;DHT22;18973;48.580;8.912;2022-11-02T11:44:27;16.40;99.90
32534;DHT22;18973;48.580;8.912;2022-11-02T11:46:56;16.40;99.90
32534;DHT22;18973;48.580;8.912;2022-11-02T11:49:31;16.60;99.90
32534;DHT22;18973;48.580;8.912;2022-11-02T11:52:01;16.70;99.90
32534;DHT22;18973;48.580;8.912;2022-11-02T11:54:31;16.90;99.90
32534;DHT22;18973;48.580;8.912;2022-11-02T11:57:30;17.10;99.90
32534;DHT22;18973;48.580;8.912;2022-11-02T11:59:58;17.20;99.90
32534;DHT22;18973;48.580;8.912;2022-11-02T12:02:27;17.30;99.90
32534;DHT22;18973;48.580;8.912;2022-11-02T12:07:47;17.50;99.90
32534;DHT22;18973;48.580;8.912;2022-11-02T12:14:17;17.80;99.40
32534;DHT22;18973;48.580;8.912;2022-11-02T12:16:25;17.80;99.90
32534;DHT22;18973;48.580;8.912;2022-11-02T12:29:11;17.90;97.40
32534;DHT22;18973;48.580;8.912;2022-11-02T12:31:43;17.80;98.10
32534;DHT22;18973;48.580;8.912;2022-11-02T12:34:30;17.80;97.20
32534;DHT22;18973;48.580;8.912;2022-11-02T12:37:14;17.90;98.30
32534;DHT22;18973;48.580;8.912;2022-11-02T12:39:59;18.00;97.00
32534;DHT22;18973;48.580;8.912;2022-11-02T12:42:36;17.70;98.00
32534;DHT22;18973;48.580;8.912;2022-11-02T12:48:13;18.00;96.40
32534;DHT22;18973;48.580;8.912;2022-11-02T12:55:56;18.30;97.70
32534;DHT22;18973;48.580;8.912;2022-11-02T12:58:29;18.30;96.70
32534;DHT22;18973;48.580;8.912;2022-11-02T13:01:18;18.30;96.20
32534;DHT22;18973;48.580;8.912;2022-11-02T13:03:50;18.30;97.00
32534;DHT22;18973;48.580;8.912;2022-11-02T13:06:22;18.70;99.90
32534;DHT22;18973;48.580;8.912;2022-11-02T13:09:20;18.80;96.30
32534;DHT22;18973;48.580;8.912;2022-11-02T13:11:52;18.60;93.50
32534;DHT22;18973;48.580;8.912;2022-11-02T13:14:19;18.50;94.20
32534;DHT22;18973;48.580;8.912;2022-11-02T13:19:35;18.40;94.20
32534;DHT22;18973;48.580;8.912;2022-11-02T13:22:03;18.20;93.60
32534;DHT22;18973;48.580;8.912;2022-11-02T13:24:33;18.10;94.10
32534;DHT22;18973;48.580;8.912;2022-11-02T13:27:04;18.20;93.10
32534;DHT22;18973;48.580;8.912;2022-11-02T13:29:40;18.10;93.50
32534;DHT22;18973;48.580;8.912;2022-11-02T13:34:58;18.00;93.00
32534;DHT22;18973;48.580;8.912;2022-11-02T13:37:38;17.90;93.10
32534;DHT22;18973;48.580;8.912;2022-11-02T13:40:23;17.80;93.80
32534;DHT22;18973;48.580;8.912;2022-11-02T13:50:57;17.40;93.50
32534;DHT22;18973;48.580;8.912;2022-11-02T13:53:50;17.30;94.10
32534;DHT22;18973;48.580;8.912;2022-11-02T13:56:22;17.30;94.40
32534;DHT22;18973;48.580;8.912;2022-11-02T13:58:59;17.30;94.80
32534;DHT22;18973;48.580;8.912;2022-11-02T14:01:27;17.20;94.60
32534;DHT22;18973;48.580;8.912;2022-11-02T14:04:08;17.20;94.60
32534;DHT22;18973;48.580;8.912;2022-11-02T14:06:45;17.20;94.60
32534;DHT22;18973;48.580;8.912;2022-11-02T14:09:41;17.20;94.30
32534;DHT22;18973;48.580;8.912;2022-11-02T14:14:35;17.60;99.90
32534;DHT22;18973;48.580;8.912;2022-11-02T14:17:15;18.00;99.90
32534;DHT22;18973;48.580;8.912;2022-11-02T14:19:50;18.20;99.20
32534;DHT22;18973;48.580;8.912;2022-11-02T14:22:17;18.40;99.00
32534;DHT22;18973;48.580;8.912;2022-11-02T14:41:03;17.40;95.80
32534;DHT22;18973;48.580;8.912;2022-11-02T14:49:03;17.20;96.40
32534;DHT22;18973;48.580;8.912;2022-11-02T14:51:31;17.00;95.80
32534;DHT22;18973;48.580;8.912;2022-11-02T14:59:51;16.90;97.70
32534;DHT22;18973;48.580;8.912;2022-11-02T15:02:36;16.80;97.10
32534;DHT22;18973;48.580;8.912;2022-11-02T15:05:05;16.80;96.60
32534;DHT22;18973;48.580;8.912;2022-11-02T15:12:40;16.50;96.10
32534;DHT22;18973;48.580;8.912;2022-11-02T15:15:27;16.40;95.90
32534;DHT22;18973;48.580;8.912;2022-11-02T15:20:32;16.30;95.80
32534;DHT22;18973;48.580;8.912;2022-11-02T15:25:48;16.20;96.30
32534;DHT22;18973;48.580;8.912;2022-11-02T15:28:18;16.20;96.60
32534;DHT22;18973;48.580;8.912;2022-11-02T15:30:52;16.20;96.70
32534;DHT22;18973;48.580;8.912;2022-11-02T15:34:01;16.10;96.90
32534;DHT22;18973;48.580;8.912;2022-11-02T15:36:32;15.90;97.10
32534;DHT22;18973;48.580;8.912;2022-11-02T15:39:02;15.70;97.50
32534;DHT22;18973;48.580;8.912;2022-11-02T15:47:12;15.70;98.10
32534;DHT22;18973;48.580;8.912;2022-11-02T15:50:14;15.60;98.10
32534;DHT22;18973;48.580;8.912;2022-11-02T16:00:35;14.80;99.80
32534;DHT22;18973;48.580;8.912;2022-11-02T16:03:03;14.60;99.90
32534;DHT22;18973;48.580;8.912;2022-11-02T16:05:52;14.50;99.90
32534;DHT22;18973;48.580;8.912;2022-11-02T16:08:22;14.40;99.90
32534;DHT22;18973;48.580;8.912;2022-11-02T16:10:49;14.30;99.90
32534;DHT22;18973;48.580;8.912;2022-11-02T16:13:18;14.10;99.90
32534;DHT22;18973;48.580;8.912;2022-11-02T16:15:46;14.10;99.90
32534;DHT22;18973;48.580;8.912;2022-11-02T16:18:36;14.10;99.90
32534;DHT22;18973;48.580;8.912;2022-11-02T16:21:02;13.90;99.90
32534;DHT22;18973;48.580;8.912;2022-11-02T16:23:32;14.00;99.90
32534;DHT22;18973;48.580;8.912;2022-11-02T16:26:00;14.10;99.90
32534;DHT22;18973;48.580;8.912;2022-11-02T16:28:29;14.10;99.90
32534;DHT22;18973;48.580;8.912;2022-11-02T16:31:19;14.10;99.90
32534;DHT22;18973;48.580;8.912;2022-11-02T16:36:39;13.60;99.90
32534;DHT22;18973;48.580;8.912;2022-11-02T16:39:06;13.40;99.90
32534;DHT22;18973;48.580;8.912;2022-11-02T16:41:39;13.30;99.90
32534;DHT22;18973;48.580;8.912;2022-11-02T16:44:10;13.20;99.90
32534;DHT22;18973;48.580;8.912;2022-11-02T16:46:51;13.30;99.90
32534;DHT22;18973;48.580;8.912;2022-11-02T16:49:28;13.20;99.90
32534;DHT22;18973;48.580;8.912;2022-11-02T16:51:57;13.10;99.90
32534;DHT22;18973;48.580;8.912;2022-11-02T16:59:35;12.90;99.90
32534;DHT22;18973;48.580;8.912;2022-11-02T17:02:03;13.00;99.90
32534;DHT22;18973;48.580;8.912;2022-11-02T17:04:31;13.10;99.90
32534;DHT22;18973;48.580;8.912;2022-11-02T17:09:49;13.10;99.90
32534;DHT22;18973;48.580;8.912;2022-11-02T17:12:17;13.00;99.90
32534;DHT22;18973;48.580;8.912;2022-11-02T17:14:46;12.90;99.90
32534;DHT22;18973;48.580;8.912;2022-11-02T17:17:26;13.00;99.90
32534;DHT22;18973;48.580;8.912;2022-11-02T17:22:38;13.80;99.90
32534;DHT22;18973;48.580;8.912;2022-11-02T17:25:31;14.70;99.90
32534;DHT22;18973;48.580;8.912;2022-11-02T17:28:42;14.50;99.90
32534;DHT22;18973;48.580;8.912;2022-11-02T17:30:47;13.80;99.90
32534;DHT22;18973;48.580;8.912;2022-11-02T17:33:27;13.40;99.90
32534;DHT22;18973;48.580;8.912;2022-11-02T17:35:56;13.30;99.90
32534;DHT22;18973;48.580;8.912;2022-11-02T17:38:27;13.30;99.90
32534;DHT22;18973;48.580;8.912;2022-11-02T17:40:53;12.90;99.90
32534;DHT22;18973;48.580;8.912;2022-11-02T17:43:21;12.50;99.90
32534;DHT22;18973;48.580;8.912;2022-11-02T17:46:00;12.50;99.90
32534;DHT22;18973;48.580;8.912;2022-11-02T17:48:26;12.60;99.90
32534;DHT22;18973;48.580;8.912;2022-11-02T17:50:56;12.60;99.90
32534;DHT22;18973;48.580;8.912;2022-11-02T17:53:24;12.30;99.90
32534;DHT22;18973;48.580;8.912;2022-11-02T17:55:50;12.20;99.90
32534;DHT22;18973;48.580;8.912;2022-11-02T17:58:16;12.10;99.90
32534;DHT22;18973;48.580;8.912;2022-11-02T18:00:42;12.00;99.90
32534;DHT22;18973;48.580;8.912;2022-11-02T18:03:17;11.90;99.90
32534;DHT22;18973;48.580;8.912;2022-11-02T18:05:45;12.00;99.90
32534;DHT22;18973;48.580;8.912;2022-11-02T18:08:11;12.00;99.90
32534;DHT22;18973;48.580;8.912;2022-11-02T18:10:39;12.00;99.90
32534;DHT22;18973;48.580;8.912;2022-11-02T18:13:08;12.00;99.90
32534;DHT22;18973;48.580;8.912;2022-11-02T18:15:36;12.00;99.90
32534;DHT22;18973;48.580;8.912;2022-11-02T18:18:02;11.70;99.90
32534;DHT22;18973;48.580;8.912;2022-11-02T18:20:28;11.50;99.90
32534;DHT22;18973;48.580;8.912;2022-11-02T18:22:54;11.50;99.90
32534;DHT22;18973;48.580;8.912;2022-11-02T18:25:22;11.30;99.90
32534;DHT22;18973;48.580;8.912;2022-11-02T18:27:48;11.50;99.90
32534;DHT22;18973;48.580;8.912;2022-11-02T18:30:16;11.50;99.90
32534;DHT22;18973;48.580;8.912;2022-11-02T18:32:43;11.30;99.90
32534;DHT22;18973;48.580;8.912;2022-11-02T18:35:14;11.20;99.90
32534;DHT22;18973;48.580;8.912;2022-11-02T18:37:41;11.20;99.90